createdAt,value
2019-03-09T00:02:16.490Z,5.30
2019-03-09T00:04:47.779Z,4.93
2019-03-09T00:07:19.015Z,5.30
2019-03-09T00:09:50.293Z,5.17
2019-03-09T00:12:21.609Z,4.80
2019-03-09T00:14:52.843Z,5.00
2019-03-09T00:17:24.161Z,5.07
2019-03-09T00:19:58.010Z,4.93
2019-03-09T00:22:29.326Z,4.87
2019-03-09T00:25:23.226Z,5.30
2019-03-09T00:28:04.359Z,4.67
2019-03-09T00:30:46.627Z,4.87
2019-03-09T00:33:18.867Z,4.97
2019-03-09T00:35:50.471Z,5.53
2019-03-09T00:38:21.726Z,5.83
2019-03-09T00:40:52.957Z,5.77
2019-03-09T00:43:24.147Z,5.40
2019-03-09T00:45:56.773Z,5.10
2019-03-09T00:48:28.175Z,5.00
2019-03-09T00:50:59.490Z,5.20
2019-03-09T00:53:30.804Z,5.10
2019-03-09T00:56:02.403Z,5.00
2019-03-09T00:58:33.895Z,4.80
2019-03-09T01:01:05.939Z,4.90
2019-03-09T01:03:37.244Z,4.57
2019-03-09T01:06:08.970Z,4.37
2019-03-09T01:08:41.331Z,4.17
2019-03-09T01:11:12.639Z,4.30
2019-03-09T01:13:43.822Z,4.50
2019-03-09T01:16:15.296Z,4.37
2019-03-09T01:18:46.916Z,4.57
2019-03-09T01:21:18.126Z,4.47
2019-03-09T01:23:49.836Z,4.23
2019-03-09T01:26:21.134Z,4.93
2019-03-09T01:28:52.450Z,5.27
2019-03-09T01:31:23.829Z,5.33
2019-03-09T01:33:55.053Z,5.40
2019-03-09T01:36:26.363Z,6.00
2019-03-09T01:38:57.606Z,5.07
2019-03-09T01:41:28.968Z,4.97
2019-03-09T01:44:00.203Z,4.87
2019-03-09T01:46:31.427Z,4.90
2019-03-09T01:49:02.683Z,4.37
2019-03-09T01:51:34.263Z,4.83
2019-03-09T01:54:05.774Z,4.70
2019-03-09T01:56:36.937Z,4.53
2019-03-09T01:59:08.187Z,5.00
2019-03-09T02:01:39.502Z,4.47
2019-03-09T02:04:10.819Z,5.13
2019-03-09T02:06:42.314Z,5.33
2019-03-09T02:09:13.731Z,4.87
2019-03-09T02:11:45.195Z,5.10
2019-03-09T02:14:16.499Z,5.50
2019-03-09T02:16:48.145Z,5.10
2019-03-09T02:19:19.447Z,5.00
2019-03-09T02:21:50.770Z,5.23
2019-03-09T02:24:21.924Z,5.10
2019-03-09T02:26:53.107Z,5.00
2019-03-09T02:29:24.296Z,5.00
2019-03-09T02:31:55.465Z,4.90
2019-03-09T02:34:26.741Z,4.83
2019-03-09T02:36:58.335Z,4.90
2019-03-09T02:39:49.840Z,4.57
2019-03-09T02:42:21.146Z,4.10
2019-03-09T02:44:52.324Z,4.37
2019-03-09T02:47:23.481Z,4.50
2019-03-09T02:49:55.479Z,4.57
2019-03-09T02:52:26.810Z,4.70
2019-03-09T02:54:58.212Z,4.83
2019-03-09T02:57:29.425Z,4.63
2019-03-09T03:00:01.412Z,4.60
2019-03-09T03:02:43.935Z,4.23
2019-03-09T03:05:16.573Z,4.20
2019-03-09T03:07:47.806Z,4.37
2019-03-09T03:10:19.486Z,4.17
2019-03-09T03:12:51.854Z,4.70
2019-03-09T03:15:33.408Z,4.57
2019-03-09T03:18:05.144Z,4.37
2019-03-09T03:20:36.394Z,3.93
2019-03-09T03:23:08.002Z,4.50
2019-03-09T03:25:39.343Z,3.93
2019-03-09T03:28:11.069Z,4.50
2019-03-09T03:30:42.489Z,4.47
2019-03-09T03:33:13.766Z,4.23
2019-03-09T03:35:45.390Z,3.87
2019-03-09T03:38:16.655Z,3.77
2019-03-09T03:40:48.396Z,4.00
2019-03-09T03:43:19.633Z,3.60
2019-03-09T03:45:51.391Z,4.13
2019-03-09T03:48:22.815Z,3.47
2019-03-09T03:50:54.309Z,3.77
2019-03-09T03:53:25.697Z,4.27
2019-03-09T03:55:57.088Z,3.53
2019-03-09T03:58:28.408Z,5.00
2019-03-09T04:00:59.825Z,4.27
2019-03-09T04:03:31.329Z,3.70
2019-03-09T04:06:02.932Z,3.40
2019-03-09T04:08:34.615Z,3.70
2019-03-09T04:11:06.365Z,3.30
2019-03-09T04:13:37.741Z,3.67
2019-03-09T04:16:09.157Z,3.30
2019-03-09T04:18:40.399Z,3.37
2019-03-09T04:21:12.809Z,3.17
2019-03-09T04:23:44.070Z,2.70
2019-03-09T04:26:15.251Z,3.20
2019-03-09T04:28:46.668Z,3.00
2019-03-09T04:31:17.939Z,2.80
2019-03-09T04:33:49.617Z,2.80
2019-03-09T04:36:21.294Z,2.70
2019-03-09T04:38:52.786Z,2.80
2019-03-09T04:41:24.046Z,2.47
2019-03-09T04:43:55.449Z,2.70
2019-03-09T04:46:27.021Z,2.80
2019-03-09T04:48:58.347Z,2.60
2019-03-09T04:51:29.932Z,2.70
2019-03-09T04:54:01.244Z,2.50
2019-03-09T04:56:32.500Z,2.60
2019-03-09T04:59:04.118Z,1.90
2019-03-09T05:01:35.356Z,2.00
2019-03-09T05:04:58.968Z,2.00
2019-03-09T05:07:49.886Z,1.87
2019-03-09T05:10:54.272Z,1.67
2019-03-09T05:13:56.747Z,1.60
2019-03-09T05:16:27.922Z,1.70
2019-03-09T05:18:59.109Z,1.80
2019-03-09T05:21:30.566Z,1.73
2019-03-09T05:24:01.924Z,2.37
2019-03-09T05:26:33.177Z,1.80
2019-03-09T05:29:04.526Z,1.70
2019-03-09T05:31:36.439Z,1.60
2019-03-09T05:34:07.938Z,1.63
2019-03-09T05:36:39.509Z,1.50
2019-03-09T05:39:10.953Z,1.90
2019-03-09T05:41:42.271Z,2.40
2019-03-09T05:44:13.936Z,2.40
2019-03-09T05:46:45.248Z,1.80
2019-03-09T05:49:16.905Z,1.97
2019-03-09T05:52:32.007Z,2.30
2019-03-09T05:55:21.182Z,2.20
2019-03-09T05:57:52.526Z,1.93
2019-03-09T06:00:23.950Z,2.00
2019-03-09T06:02:55.344Z,2.03
2019-03-09T06:05:45.591Z,2.27
2019-03-09T06:08:17.267Z,1.80
2019-03-09T06:10:48.918Z,2.83
2019-03-09T06:13:20.274Z,3.30
2019-03-09T06:15:51.619Z,1.80
2019-03-09T06:18:22.875Z,1.70
2019-03-09T06:20:54.070Z,1.80
2019-03-09T06:23:26.051Z,2.03
2019-03-09T06:25:57.432Z,1.93
2019-03-09T06:28:28.899Z,1.80
2019-03-09T06:31:00.199Z,1.90
2019-03-09T06:33:36.091Z,1.53
2019-03-09T06:36:25.601Z,2.00
2019-03-09T06:39:48.482Z,1.67
2019-03-09T06:42:58.473Z,1.97
2019-03-09T06:45:29.869Z,1.80
2019-03-09T06:48:01.031Z,2.80
2019-03-09T06:50:32.701Z,1.60
2019-03-09T06:53:04.455Z,2.40
2019-03-09T06:55:35.860Z,1.60
2019-03-09T06:58:07.112Z,1.50
2019-03-09T07:00:41.209Z,1.83
2019-03-09T07:03:13.020Z,2.23
2019-03-09T07:05:44.340Z,1.70
2019-03-09T07:08:16.006Z,2.07
2019-03-09T07:10:47.257Z,1.57
2019-03-09T07:13:18.555Z,2.03
2019-03-09T07:15:50.024Z,1.50
2019-03-09T07:18:32.465Z,1.23
2019-03-09T07:21:03.850Z,1.50
2019-03-09T07:23:35.144Z,1.33
2019-03-09T07:26:07.650Z,1.60
2019-03-09T07:28:39.040Z,1.43
2019-03-09T07:31:10.372Z,1.50
2019-03-09T07:33:41.956Z,1.50
2019-03-09T07:36:13.354Z,1.63
2019-03-09T07:38:44.623Z,1.60
2019-03-09T07:41:16.124Z,1.80
2019-03-09T07:43:47.347Z,1.57
2019-03-09T07:46:18.602Z,1.50
2019-03-09T07:48:49.768Z,1.50
2019-03-09T07:51:21.021Z,1.50
2019-03-09T07:53:52.403Z,1.47
2019-03-09T07:56:23.764Z,0.80
2019-03-09T07:58:55.027Z,1.50
2019-03-09T08:01:26.553Z,1.70
2019-03-09T08:03:58.781Z,1.67
2019-03-09T08:06:30.038Z,1.10
2019-03-09T08:09:01.494Z,1.70
2019-03-09T08:11:34.731Z,1.70
2019-03-09T08:14:06.125Z,1.30
2019-03-09T08:16:37.555Z,1.30
2019-03-09T08:19:08.874Z,2.50
2019-03-09T08:21:40.125Z,1.23
2019-03-09T08:24:11.372Z,1.40
2019-03-09T08:26:42.733Z,1.30
2019-03-09T08:29:13.898Z,1.50
2019-03-09T08:31:45.480Z,1.60
2019-03-09T08:34:16.983Z,1.50
2019-03-09T08:36:48.593Z,1.30
2019-03-09T08:39:20.199Z,1.13
2019-03-09T08:41:51.760Z,1.07
2019-03-09T08:44:22.946Z,1.10
2019-03-09T08:46:54.167Z,1.40
2019-03-09T08:49:25.681Z,1.10
2019-03-09T08:51:57.242Z,1.37
2019-03-09T08:54:28.595Z,1.60
2019-03-09T08:56:59.774Z,1.37
2019-03-09T08:59:31.052Z,1.10
2019-03-09T09:02:02.285Z,1.23
2019-03-09T09:04:34.792Z,1.03
2019-03-09T09:07:06.244Z,1.50
2019-03-09T09:09:37.795Z,1.70
2019-03-09T09:12:09.306Z,1.57
2019-03-09T09:14:40.580Z,1.40
2019-03-09T09:17:12.222Z,1.40
2019-03-09T09:19:43.804Z,1.23
2019-03-09T09:22:15.315Z,1.50
2019-03-09T09:24:46.639Z,1.30
2019-03-09T09:27:17.962Z,1.57
2019-03-09T09:29:49.540Z,1.20
2019-03-09T09:32:20.782Z,1.60
2019-03-09T09:34:52.117Z,1.40
2019-03-09T09:37:23.513Z,1.30
2019-03-09T09:39:54.883Z,1.40
2019-03-09T09:42:26.871Z,1.37
2019-03-09T09:44:58.108Z,1.57
2019-03-09T09:47:29.642Z,1.30
2019-03-09T09:50:00.948Z,1.40
2019-03-09T09:52:32.273Z,1.43
2019-03-09T09:55:03.565Z,1.40
2019-03-09T09:57:34.837Z,1.20
2019-03-09T10:00:08.891Z,1.20
2019-03-09T10:02:40.844Z,1.30
2019-03-09T10:05:13.025Z,1.20
2019-03-09T10:07:44.427Z,1.17
2019-03-09T10:10:17.625Z,1.20
2019-03-09T10:12:48.971Z,1.20
2019-03-09T10:15:23.478Z,1.07
2019-03-09T10:17:54.987Z,1.30
2019-03-09T10:20:26.343Z,0.97
2019-03-09T10:23:03.993Z,1.30
2019-03-09T10:25:31.714Z,1.20
2019-03-09T10:28:03.113Z,1.00
2019-03-09T10:30:35.187Z,1.10
2019-03-09T10:33:06.609Z,1.13
2019-03-09T10:35:38.452Z,1.20
2019-03-09T10:38:09.887Z,1.40
2019-03-09T10:40:41.245Z,1.23
2019-03-09T10:43:12.629Z,1.00
2019-03-09T10:45:44.493Z,1.20
2019-03-09T10:48:15.763Z,1.00
2019-03-09T10:50:47.128Z,1.20
2019-03-09T10:53:19.025Z,1.00
2019-03-09T10:55:50.437Z,0.90
2019-03-09T10:58:22.095Z,1.17
2019-03-09T11:00:53.510Z,1.40
2019-03-09T11:03:24.818Z,1.20
2019-03-09T11:05:56.212Z,1.30
2019-03-09T11:08:28.010Z,1.10
2019-03-09T11:10:59.671Z,1.00
2019-03-09T11:13:33.488Z,1.47
2019-03-09T11:16:04.914Z,1.50
2019-03-09T11:18:36.255Z,1.30
2019-03-09T11:21:07.972Z,1.50
2019-03-09T11:23:39.481Z,1.10
2019-03-09T11:26:10.829Z,1.40
2019-03-09T11:28:42.360Z,1.37
2019-03-09T11:31:13.994Z,1.30
2019-03-09T11:33:45.610Z,1.50
2019-03-09T11:36:16.777Z,1.37
2019-03-09T11:38:48.064Z,1.63
2019-03-09T11:41:19.629Z,1.50
2019-03-09T11:43:50.968Z,1.20
2019-03-09T11:46:22.584Z,1.30
2019-03-09T11:48:53.911Z,1.00
2019-03-09T11:51:25.324Z,1.23
2019-03-09T11:53:56.668Z,1.27
2019-03-09T11:56:28.196Z,1.00
2019-03-09T11:58:59.372Z,1.13
2019-03-09T12:01:30.797Z,1.43
2019-03-09T12:04:01.976Z,1.30
2019-03-09T12:06:33.612Z,1.47
2019-03-09T12:09:06.669Z,1.17
2019-03-09T12:11:39.665Z,1.10
2019-03-09T12:14:11.276Z,1.43
2019-03-09T12:16:42.905Z,1.13
2019-03-09T12:19:17.124Z,1.17
2019-03-09T12:21:48.312Z,1.03
2019-03-09T12:24:20.120Z,1.30
2019-03-09T12:26:51.557Z,1.40
2019-03-09T12:29:22.968Z,0.97
2019-03-09T12:31:54.300Z,2.00
2019-03-09T12:34:25.698Z,1.50
2019-03-09T12:36:57.417Z,1.47
2019-03-09T12:39:28.859Z,1.40
2019-03-09T12:42:00.119Z,1.20
2019-03-09T12:44:31.409Z,1.30
2019-03-09T12:47:03.005Z,1.30
2019-03-09T12:49:34.185Z,2.07
2019-03-09T12:52:05.500Z,1.40
2019-03-09T12:54:36.769Z,1.40
2019-03-09T12:57:08.487Z,1.47
2019-03-09T12:59:39.882Z,1.20
2019-03-09T13:02:11.240Z,1.30
2019-03-09T13:04:42.501Z,1.50
2019-03-09T13:07:13.839Z,1.80
2019-03-09T13:09:45.170Z,2.40
2019-03-09T13:12:16.919Z,1.43
2019-03-09T13:14:48.256Z,1.40
2019-03-09T13:17:20.280Z,1.60
2019-03-09T13:19:51.642Z,1.30
2019-03-09T13:22:22.891Z,1.40
2019-03-09T13:24:54.141Z,1.73
2019-03-09T13:27:25.599Z,1.60
2019-03-09T13:29:57.366Z,1.40
2019-03-09T13:32:28.697Z,1.30
2019-03-09T13:34:59.964Z,1.70
2019-03-09T13:37:31.286Z,1.50
2019-03-09T13:40:02.587Z,1.40
2019-03-09T13:42:34.032Z,1.43
2019-03-09T13:45:05.878Z,1.70
2019-03-09T13:47:37.299Z,1.40
2019-03-09T13:50:10.527Z,1.03
2019-03-09T13:52:43.273Z,1.40
2019-03-09T13:55:14.921Z,1.30
2019-03-09T13:57:46.344Z,1.40
2019-03-09T14:00:17.778Z,1.20
2019-03-09T14:02:49.454Z,1.10
2019-03-09T14:05:20.698Z,1.27
2019-03-09T14:07:52.377Z,0.93
2019-03-09T14:10:23.815Z,1.33
2019-03-09T14:12:55.189Z,1.00
2019-03-09T14:15:26.439Z,1.03
2019-03-09T14:17:57.698Z,1.10
2019-03-09T14:20:28.977Z,0.77
2019-03-09T14:23:00.747Z,0.80
2019-03-09T14:25:31.997Z,0.70
2019-03-09T14:28:03.338Z,0.60
2019-03-09T14:30:34.653Z,0.60
2019-03-09T14:33:05.984Z,1.03
2019-03-09T14:35:37.309Z,0.80
2019-03-09T14:38:08.642Z,1.10
2019-03-09T14:40:40.020Z,1.13
2019-03-09T14:43:11.908Z,1.60
2019-03-09T14:45:43.230Z,1.67
2019-03-09T14:48:14.490Z,1.33
2019-03-09T14:50:46.124Z,0.80
2019-03-09T14:53:17.579Z,0.67
2019-03-09T14:55:48.910Z,0.80
2019-03-09T14:58:20.157Z,0.70
2019-03-09T15:00:51.862Z,1.00
2019-03-09T15:03:23.172Z,1.10
2019-03-09T15:05:54.478Z,1.30
2019-03-09T15:08:25.739Z,1.47
2019-03-09T15:10:58.400Z,1.07
2019-03-09T15:13:30.096Z,1.80
2019-03-09T15:16:01.775Z,1.30
2019-03-09T15:18:33.816Z,1.30
2019-03-09T15:21:05.175Z,1.30
2019-03-09T15:23:36.497Z,1.40
2019-03-09T15:26:08.166Z,1.13
2019-03-09T15:28:39.508Z,1.60
2019-03-09T15:31:10.978Z,1.47
2019-03-09T15:33:42.202Z,1.80
2019-03-09T15:36:13.539Z,1.67
2019-03-09T15:39:17.399Z,2.23
2019-03-09T15:42:20.523Z,1.90
2019-03-09T15:45:14.058Z,1.40
2019-03-09T15:48:06.480Z,1.00
2019-03-09T15:51:02.981Z,1.23
2019-03-09T15:54:33.844Z,1.10
2019-03-09T15:57:34.598Z,1.30
2019-03-09T16:00:25.373Z,1.70
2019-03-09T16:03:15.027Z,1.73
2019-03-09T16:06:10.228Z,1.50
2019-03-09T16:09:19.870Z,3.00
2019-03-09T16:12:14.584Z,3.73
2019-03-09T16:15:02.260Z,3.83
2019-03-09T16:17:59.681Z,4.67
2019-03-09T16:22:03.214Z,2.37
2019-03-09T16:24:22.105Z,1.90
2019-03-09T16:27:11.781Z,1.70
2019-03-09T16:29:42.930Z,1.80
2019-03-09T16:32:14.171Z,2.00
2019-03-09T16:34:45.616Z,1.73
2019-03-09T16:37:17.738Z,2.17
2019-03-09T16:39:48.983Z,2.00
2019-03-09T16:42:20.391Z,1.60
2019-03-09T16:44:51.742Z,2.30
2019-03-09T16:47:23.060Z,1.80
2019-03-09T16:49:54.391Z,1.87
2019-03-09T16:52:25.650Z,1.30
2019-03-09T16:54:56.850Z,1.30
2019-03-09T16:57:28.718Z,1.70
2019-03-09T16:59:59.937Z,1.50
2019-03-09T17:02:31.269Z,1.40
2019-03-09T17:05:03.723Z,1.73
2019-03-09T17:07:35.458Z,1.60
2019-03-09T17:10:07.384Z,1.50
2019-03-09T17:12:39.677Z,1.23
2019-03-09T17:15:12.257Z,1.10
2019-03-09T17:17:43.911Z,1.70
2019-03-09T17:20:17.686Z,1.20
2019-03-09T17:22:49.592Z,1.30
2019-03-09T17:25:21.270Z,0.90
2019-03-09T17:27:52.856Z,1.10
2019-03-09T17:30:24.250Z,1.10
2019-03-09T17:32:55.700Z,0.90
2019-03-09T17:35:32.654Z,1.10
2019-03-09T17:38:04.032Z,0.97
2019-03-09T17:40:36.450Z,1.20
2019-03-09T17:43:07.776Z,1.00
2019-03-09T17:45:39.019Z,1.40
2019-03-09T17:48:10.712Z,1.00
2019-03-09T17:50:42.346Z,1.13
2019-03-09T17:53:14.178Z,1.20
2019-03-09T17:55:45.743Z,1.03
2019-03-09T17:58:17.397Z,0.97
2019-03-09T18:00:48.802Z,1.20
2019-03-09T18:03:20.513Z,0.90
2019-03-09T18:05:51.756Z,1.10
2019-03-09T18:08:22.940Z,0.90
2019-03-09T18:11:01.252Z,1.13
2019-03-09T18:13:32.596Z,1.00
2019-03-09T18:16:04.260Z,1.00
2019-03-09T18:18:35.871Z,0.80
2019-03-09T18:21:07.267Z,0.87
2019-03-09T18:23:38.599Z,1.23
2019-03-09T18:26:09.914Z,1.10
2019-03-09T18:28:41.518Z,0.93
2019-03-09T18:31:12.871Z,1.03
2019-03-09T18:33:44.197Z,1.10
2019-03-09T18:36:15.456Z,0.83
2019-03-09T18:38:46.764Z,0.80
2019-03-09T18:41:17.998Z,0.60
2019-03-09T18:43:49.511Z,0.60
2019-03-09T18:46:20.798Z,0.77
2019-03-09T18:48:52.214Z,0.60
2019-03-09T18:51:23.972Z,0.60
2019-03-09T18:53:55.730Z,0.70
2019-03-09T18:56:27.149Z,0.80
2019-03-09T18:58:58.417Z,0.70
2019-03-09T19:01:29.776Z,0.70
2019-03-09T19:04:01.260Z,0.87
2019-03-09T19:06:32.591Z,0.90
2019-03-09T19:09:05.939Z,0.70
2019-03-09T19:11:37.512Z,1.00
2019-03-09T19:14:08.852Z,1.10
2019-03-09T19:16:40.209Z,0.70
2019-03-09T19:19:11.570Z,0.60
2019-03-09T19:21:42.903Z,0.80
2019-03-09T19:24:14.259Z,0.70
2019-03-09T19:26:45.517Z,0.80
2019-03-09T19:29:18.196Z,0.80
2019-03-09T19:31:49.542Z,0.80
2019-03-09T19:34:21.050Z,0.80
2019-03-09T19:36:52.461Z,0.80
2019-03-09T19:39:23.796Z,1.10
2019-03-09T19:41:55.183Z,0.87
2019-03-09T19:44:26.448Z,1.10
2019-03-09T19:46:57.718Z,0.90
2019-03-09T19:49:28.971Z,1.17
2019-03-09T19:52:00.684Z,1.33
2019-03-09T19:54:31.943Z,1.40
2019-03-09T19:57:03.525Z,1.20
2019-03-09T19:59:34.861Z,1.10
2019-03-09T20:02:06.285Z,1.00
2019-03-09T20:04:37.768Z,1.00
2019-03-09T20:07:09.127Z,1.00
2019-03-09T20:09:40.448Z,1.30
2019-03-09T20:12:12.142Z,0.90
2019-03-09T20:14:43.495Z,0.83
2019-03-09T20:17:14.940Z,0.87
2019-03-09T20:19:46.222Z,0.80
2019-03-09T20:22:17.496Z,0.70
2019-03-09T20:24:48.751Z,0.80
2019-03-09T20:27:20.452Z,1.00
2019-03-09T20:29:52.840Z,1.10
2019-03-09T20:32:24.528Z,1.07
2019-03-09T20:34:55.795Z,0.90
2019-03-09T20:37:27.214Z,1.10
2019-03-09T20:39:58.740Z,1.10
2019-03-09T20:42:30.103Z,1.10
2019-03-09T20:45:01.355Z,1.30
2019-03-09T20:47:33.510Z,1.10
2019-03-09T20:50:05.498Z,1.27
2019-03-09T20:52:36.846Z,1.00
2019-03-09T20:55:08.579Z,1.17
2019-03-09T20:57:39.994Z,1.03
2019-03-09T21:00:15.145Z,1.27
2019-03-09T21:02:48.221Z,1.20
2019-03-09T21:05:19.794Z,1.20
2019-03-09T21:07:51.262Z,1.30
2019-03-09T21:10:22.871Z,1.30
2019-03-09T21:13:00.174Z,1.27
2019-03-09T21:15:32.652Z,1.43
2019-03-09T21:18:04.046Z,1.13
2019-03-09T21:20:35.538Z,1.20
2019-03-09T21:23:07.023Z,1.00
2019-03-09T21:25:38.425Z,1.57
2019-03-09T21:28:09.870Z,1.20
2019-03-09T21:30:41.131Z,1.27
2019-03-09T21:33:12.464Z,1.10
2019-03-09T21:35:43.811Z,1.23
2019-03-09T21:38:15.107Z,1.33
2019-03-09T21:40:46.470Z,1.00
2019-03-09T21:43:20.602Z,1.00
2019-03-09T21:45:51.403Z,1.10
2019-03-09T21:48:22.699Z,1.10
2019-03-09T21:50:54.060Z,1.10
2019-03-09T21:53:25.519Z,1.10
2019-03-09T21:55:56.898Z,1.43
2019-03-09T21:58:28.175Z,1.27
2019-03-09T22:00:59.772Z,1.10
2019-03-09T22:03:31.400Z,1.07
2019-03-09T22:06:06.337Z,1.27
2019-03-09T22:08:36.657Z,1.30
2019-03-09T22:11:07.852Z,1.23
2019-03-09T22:13:39.119Z,1.47
2019-03-09T22:16:10.726Z,1.30
2019-03-09T22:18:42.079Z,1.33
2019-03-09T22:21:13.377Z,1.30
2019-03-09T22:23:45.717Z,1.23
2019-03-09T22:26:16.953Z,1.20
2019-03-09T22:28:48.295Z,1.37
2019-03-09T22:31:20.652Z,1.03
2019-03-09T22:33:52.381Z,1.20
2019-03-09T22:36:24.090Z,1.20
2019-03-09T22:38:55.714Z,1.80
2019-03-09T22:41:27.213Z,2.10
2019-03-09T22:43:58.505Z,2.50
2019-03-09T22:46:30.167Z,2.20
2019-03-09T22:49:01.355Z,2.40
2019-03-09T22:51:32.648Z,2.40
2019-03-09T22:54:04.059Z,2.83
2019-03-09T22:56:36.384Z,2.70
2019-03-09T22:59:07.656Z,2.47
2019-03-09T23:01:39.190Z,2.20
2019-03-09T23:04:10.436Z,2.50
2019-03-09T23:06:42.192Z,2.50
2019-03-09T23:09:13.438Z,2.43
2019-03-09T23:11:47.452Z,1.90
2019-03-09T23:14:19.279Z,2.10
2019-03-09T23:16:50.692Z,2.10
2019-03-09T23:19:22.118Z,2.03
2019-03-09T23:21:53.801Z,1.90
2019-03-09T23:24:25.056Z,1.83
2019-03-09T23:26:56.398Z,1.80
2019-03-09T23:29:27.708Z,2.10
2019-03-09T23:31:59.124Z,1.73
2019-03-09T23:34:30.613Z,2.00
2019-03-09T23:37:02.342Z,2.23
2019-03-09T23:39:34.544Z,1.90
2019-03-09T23:42:05.927Z,1.97
2019-03-09T23:44:37.356Z,1.80
2019-03-09T23:47:09.019Z,1.83
2019-03-09T23:49:40.454Z,2.13
2019-03-09T23:52:12.260Z,2.00
2019-03-09T23:54:44.028Z,1.90
2019-03-09T23:57:15.405Z,1.90
2019-03-09T23:59:46.817Z,2.10
